createdAt,value
2023-04-29T00:00:19.332Z,100.00
2023-04-29T00:03:04.662Z,100.00
2023-04-29T00:05:49.947Z,100.00
2023-04-29T00:08:35.087Z,100.00
2023-04-29T00:11:20.462Z,100.00
2023-04-29T00:14:05.529Z,100.00
2023-04-29T00:16:50.628Z,100.00
2023-04-29T00:19:35.841Z,100.00
2023-04-29T00:22:22.655Z,100.00
2023-04-29T00:25:08.480Z,100.00
2023-04-29T00:27:53.467Z,100.00
2023-04-29T00:30:38.513Z,100.00
2023-04-29T00:33:23.868Z,100.00
2023-04-29T00:36:09.552Z,100.00
2023-04-29T00:38:54.320Z,100.00
2023-04-29T00:41:39.748Z,100.00
2023-04-29T00:44:24.911Z,100.00
2023-04-29T00:47:11.554Z,100.00
2023-04-29T00:49:56.602Z,100.00
2023-04-29T00:52:43.047Z,100.00
2023-04-29T00:55:28.864Z,100.00
2023-04-29T00:58:14.252Z,100.00
2023-04-29T01:01:00.886Z,100.00
2023-04-29T01:03:46.411Z,100.00
2023-04-29T01:07:13.327Z,100.00
2023-04-29T01:10:10.701Z,100.00
2023-04-29T01:13:08.138Z,100.00
2023-04-29T01:16:06.456Z,100.00
2023-04-29T01:18:59.220Z,100.00
2023-04-29T01:21:51.638Z,100.00
2023-04-29T01:24:36.847Z,100.00
2023-04-29T01:27:42.216Z,100.00
2023-04-29T01:30:38.255Z,100.00
2023-04-29T01:33:35.731Z,100.00
2023-04-29T01:36:36.243Z,100.00
2023-04-29T01:39:34.741Z,100.00
2023-04-29T01:42:31.041Z,100.00
2023-04-29T01:45:17.763Z,100.00
2023-04-29T01:48:04.761Z,100.00
2023-04-29T01:50:50.265Z,100.00
2023-04-29T01:53:35.354Z,100.00
2023-04-29T01:56:20.406Z,100.00
2023-04-29T01:59:05.343Z,100.00
2023-04-29T02:01:50.861Z,100.00
2023-04-29T02:04:36.398Z,100.00
2023-04-29T02:07:21.894Z,100.00
2023-04-29T02:10:07.579Z,100.00
2023-04-29T02:12:52.677Z,100.00
2023-04-29T02:15:37.859Z,100.00
2023-04-29T02:18:23.210Z,100.00
2023-04-29T02:21:08.904Z,100.00
2023-04-29T02:23:54.574Z,100.00
2023-04-29T02:26:39.370Z,100.00
2023-04-29T02:29:26.421Z,100.00
2023-04-29T02:32:11.702Z,100.00
2023-04-29T02:34:57.081Z,100.00
2023-04-29T02:37:42.436Z,100.00
2023-04-29T02:40:27.313Z,100.00
2023-04-29T02:43:12.560Z,100.00
2023-04-29T02:45:57.990Z,100.00
2023-04-29T02:48:43.094Z,100.00
2023-04-29T02:51:29.040Z,100.00
2023-04-29T02:54:14.346Z,100.00
2023-04-29T02:56:59.451Z,100.00
2023-04-29T02:59:44.489Z,100.00
2023-04-29T03:02:29.476Z,100.00
2023-04-29T03:05:15.478Z,100.00
2023-04-29T03:08:00.723Z,100.00
2023-04-29T03:10:46.662Z,100.00
2023-04-29T03:13:31.834Z,100.00
2023-04-29T03:16:17.161Z,100.00
2023-04-29T03:19:02.345Z,100.00
2023-04-29T03:21:47.726Z,100.00
2023-04-29T03:24:32.892Z,100.00
2023-04-29T03:27:17.759Z,100.00
2023-04-29T03:30:02.817Z,100.00
2023-04-29T03:32:47.718Z,100.00
2023-04-29T03:35:33.025Z,100.00
2023-04-29T03:38:18.128Z,100.00
2023-04-29T03:41:03.258Z,100.00
2023-04-29T03:43:48.494Z,100.00
2023-04-29T03:46:33.446Z,100.00
2023-04-29T03:49:18.410Z,100.00
2023-04-29T03:52:04.718Z,100.00
2023-04-29T03:54:50.061Z,100.00
2023-04-29T03:57:34.972Z,100.00
2023-04-29T04:00:20.030Z,100.00
2023-04-29T04:03:05.874Z,100.00
2023-04-29T04:05:51.079Z,100.00
2023-04-29T04:08:36.179Z,100.00
2023-04-29T04:11:21.028Z,100.00
2023-04-29T04:14:06.501Z,100.00
2023-04-29T04:16:51.600Z,100.00
2023-04-29T04:19:36.929Z,100.00
2023-04-29T04:22:21.988Z,100.00
2023-04-29T04:25:08.412Z,100.00
2023-04-29T04:27:54.390Z,100.00
2023-04-29T04:30:39.292Z,100.00
2023-04-29T04:33:25.972Z,100.00
2023-04-29T04:36:11.399Z,100.00
2023-04-29T04:38:56.659Z,100.00
2023-04-29T04:41:41.732Z,100.00
2023-04-29T04:44:26.861Z,100.00
2023-04-29T04:47:11.826Z,100.00
2023-04-29T04:49:56.923Z,100.00
2023-04-29T04:52:42.679Z,100.00
2023-04-29T04:55:27.735Z,100.00
2023-04-29T04:58:12.894Z,100.00
2023-04-29T05:00:58.299Z,100.00
2023-04-29T05:03:44.055Z,100.00
2023-04-29T05:06:29.138Z,100.00
2023-04-29T05:09:14.423Z,100.00
2023-04-29T05:11:59.474Z,100.00
2023-04-29T05:14:44.888Z,100.00
2023-04-29T05:17:30.452Z,100.00
2023-04-29T05:20:15.720Z,100.00
2023-04-29T05:23:00.780Z,100.00
2023-04-29T05:25:46.102Z,100.00
2023-04-29T05:28:31.097Z,100.00
2023-04-29T05:31:16.498Z,100.00
2023-04-29T05:34:01.582Z,100.00
2023-04-29T05:36:46.674Z,100.00
2023-04-29T05:39:32.040Z,100.00
2023-04-29T05:42:16.995Z,100.00
2023-04-29T05:45:02.209Z,100.00
2023-04-29T05:47:47.567Z,100.00
2023-04-29T05:50:32.345Z,100.00
2023-04-29T05:53:17.373Z,100.00
2023-04-29T05:56:06.525Z,100.00
2023-04-29T05:58:52.139Z,100.00
2023-04-29T06:01:37.167Z,100.00
2023-04-29T06:04:22.520Z,100.00
2023-04-29T06:07:09.182Z,100.00
2023-04-29T06:09:55.034Z,100.00
2023-04-29T06:12:40.296Z,100.00
2023-04-29T06:15:25.859Z,100.00
2023-04-29T06:18:11.027Z,100.00
2023-04-29T06:20:56.048Z,100.00
2023-04-29T06:23:41.268Z,100.00
2023-04-29T06:26:26.285Z,100.00
2023-04-29T06:29:11.495Z,100.00
2023-04-29T06:31:56.892Z,100.00
2023-04-29T06:34:42.235Z,100.00
2023-04-29T06:37:28.700Z,100.00
2023-04-29T06:40:13.980Z,100.00
2023-04-29T06:42:59.227Z,100.00
2023-04-29T06:45:46.914Z,100.00
2023-04-29T06:48:32.320Z,100.00
2023-04-29T06:51:18.034Z,100.00
2023-04-29T06:54:03.000Z,100.00
2023-04-29T06:56:48.448Z,100.00
2023-04-29T06:59:33.714Z,100.00
2023-04-29T07:02:18.697Z,100.00
2023-04-29T07:05:04.017Z,100.00
2023-04-29T07:07:49.330Z,100.00
2023-04-29T07:10:34.851Z,100.00
2023-04-29T07:13:20.029Z,100.00
2023-04-29T07:16:05.628Z,100.00
2023-04-29T07:18:51.018Z,100.00
2023-04-29T07:21:36.209Z,100.00
2023-04-29T07:24:23.048Z,100.00
2023-04-29T07:27:08.060Z,100.00
2023-04-29T07:29:53.159Z,100.00
2023-04-29T07:32:38.067Z,100.00
2023-04-29T07:35:23.170Z,100.00
2023-04-29T07:38:08.340Z,100.00
2023-04-29T07:40:53.680Z,100.00
2023-04-29T07:43:40.259Z,100.00
2023-04-29T07:46:26.574Z,100.00
2023-04-29T07:49:11.640Z,100.00
2023-04-29T07:51:56.951Z,100.00
2023-04-29T07:54:42.187Z,100.00
2023-04-29T07:57:27.139Z,100.00
2023-04-29T08:00:12.462Z,100.00
2023-04-29T08:02:57.946Z,100.00
2023-04-29T08:05:43.534Z,100.00
2023-04-29T08:08:30.321Z,100.00
2023-04-29T08:11:17.383Z,100.00
2023-04-29T08:14:02.465Z,100.00
2023-04-29T08:16:47.731Z,100.00
2023-04-29T08:19:33.003Z,100.00
2023-04-29T08:22:18.191Z,100.00
2023-04-29T08:25:07.063Z,100.00
2023-04-29T08:27:52.329Z,100.00
2023-04-29T08:30:41.576Z,98.46
2023-04-29T08:33:26.991Z,98.52
2023-04-29T08:36:12.250Z,97.39
2023-04-29T08:38:57.328Z,96.40
2023-04-29T08:41:45.473Z,96.58
2023-04-29T08:44:32.666Z,96.81
2023-04-29T08:47:17.903Z,96.27
2023-04-29T08:50:05.166Z,96.05
2023-04-29T08:52:51.870Z,95.50
2023-04-29T08:55:47.250Z,93.60
2023-04-29T08:58:34.543Z,91.91
2023-04-29T09:01:19.725Z,91.19
2023-04-29T09:04:20.095Z,90.69
2023-04-29T09:07:06.826Z,89.76
2023-04-29T09:09:53.096Z,89.34
2023-04-29T09:12:38.309Z,88.73
2023-04-29T09:15:23.657Z,88.66
2023-04-29T09:18:08.737Z,87.91
2023-04-29T09:20:54.263Z,86.09
2023-04-29T09:23:39.681Z,85.32
2023-04-29T09:26:25.896Z,84.33
2023-04-29T09:29:15.896Z,84.13
2023-04-29T09:32:01.083Z,83.34
2023-04-29T09:34:46.264Z,82.68
2023-04-29T09:37:31.498Z,82.02
2023-04-29T09:40:36.572Z,81.55
2023-04-29T09:43:29.094Z,81.00
2023-04-29T09:46:14.636Z,80.82
2023-04-29T09:49:01.098Z,81.16
2023-04-29T09:51:57.825Z,80.50
2023-04-29T09:54:44.409Z,80.49
2023-04-29T09:57:42.627Z,80.72
2023-04-29T10:00:31.565Z,81.04
2023-04-29T10:03:17.420Z,79.83
2023-04-29T10:06:07.421Z,78.63
2023-04-29T10:08:52.499Z,78.14
2023-04-29T10:11:38.046Z,76.68
2023-04-29T10:14:24.944Z,75.79
2023-04-29T10:17:21.893Z,74.64
2023-04-29T10:20:08.989Z,74.39
2023-04-29T10:22:56.576Z,74.26
2023-04-29T10:25:46.697Z,74.21
2023-04-29T10:28:32.806Z,72.26
2023-04-29T10:31:19.995Z,70.80
2023-04-29T10:34:04.872Z,70.09
2023-04-29T10:36:50.776Z,69.76
2023-04-29T10:39:44.071Z,69.74
2023-04-29T10:42:43.477Z,71.24
2023-04-29T10:45:31.774Z,71.07
2023-04-29T10:48:18.799Z,70.56
2023-04-29T10:51:04.134Z,69.41
2023-04-29T10:54:12.492Z,68.56
2023-04-29T10:56:57.857Z,68.01
2023-04-29T10:59:43.161Z,67.19
2023-04-29T11:02:28.207Z,66.94
2023-04-29T11:05:13.792Z,66.14
2023-04-29T11:08:23.468Z,66.02
2023-04-29T11:11:08.748Z,64.65
2023-04-29T11:13:53.828Z,63.85
2023-04-29T11:16:47.570Z,63.89
2023-04-29T11:19:36.701Z,63.70
2023-04-29T11:22:27.402Z,63.44
2023-04-29T11:25:12.355Z,62.44
2023-04-29T11:27:59.265Z,62.16
2023-04-29T11:30:46.493Z,61.71
2023-04-29T11:33:33.051Z,60.91
2023-04-29T11:36:18.379Z,60.23
2023-04-29T11:39:04.739Z,59.32
2023-04-29T11:41:52.514Z,59.87
2023-04-29T11:44:38.006Z,58.39
2023-04-29T11:47:31.474Z,56.99
2023-04-29T11:50:19.522Z,55.82
2023-04-29T11:53:04.861Z,56.89
2023-04-29T11:55:50.095Z,56.81
2023-04-29T11:58:35.148Z,56.51
2023-04-29T12:01:21.398Z,56.42
2023-04-29T12:04:07.377Z,56.48
2023-04-29T12:06:53.184Z,55.74
2023-04-29T12:09:45.205Z,55.11
2023-04-29T12:12:34.853Z,56.04
2023-04-29T12:15:20.084Z,55.11
2023-04-29T12:18:05.569Z,54.74
2023-04-29T12:20:57.321Z,55.07
2023-04-29T12:23:42.949Z,54.25
2023-04-29T12:26:30.597Z,53.99
2023-04-29T12:29:15.939Z,53.76
2023-04-29T12:32:01.327Z,52.73
2023-04-29T12:34:47.492Z,52.25
2023-04-29T12:37:33.354Z,51.74
2023-04-29T12:40:20.264Z,51.76
2023-04-29T12:43:10.933Z,51.52
2023-04-29T12:46:23.307Z,50.94
2023-04-29T12:49:08.952Z,50.98
2023-04-29T12:51:54.147Z,50.80
2023-04-29T12:54:43.653Z,48.59
2023-04-29T12:57:29.028Z,49.75
2023-04-29T13:00:15.096Z,48.78
2023-04-29T13:03:00.022Z,49.46
2023-04-29T13:05:46.078Z,49.50
2023-04-29T13:08:31.347Z,50.15
2023-04-29T13:11:16.397Z,52.22
2023-04-29T13:14:01.648Z,51.44
2023-04-29T13:16:46.681Z,50.37
2023-04-29T13:19:49.611Z,48.51
2023-04-29T13:22:37.402Z,46.91
2023-04-29T13:25:22.755Z,46.77
2023-04-29T13:28:07.610Z,48.15
2023-04-29T13:30:53.113Z,49.46
2023-04-29T13:33:40.176Z,48.39
2023-04-29T13:36:28.095Z,48.67
2023-04-29T13:39:14.452Z,46.80
2023-04-29T13:41:59.995Z,46.26
2023-04-29T13:44:52.422Z,46.50
2023-04-29T13:47:57.483Z,45.91
2023-04-29T13:51:04.964Z,45.51
2023-04-29T13:54:29.320Z,47.39
2023-04-29T13:57:47.232Z,47.95
2023-04-29T14:00:00.772Z,49.35
2023-04-29T14:05:43.838Z,47.81
2023-04-29T14:08:29.129Z,48.76
2023-04-29T14:11:14.470Z,47.78
2023-04-29T14:13:59.840Z,45.73
2023-04-29T14:16:45.048Z,44.89
2023-04-29T14:19:30.361Z,44.03
2023-04-29T14:22:15.480Z,44.29
2023-04-29T14:25:00.563Z,45.36
2023-04-29T14:27:45.696Z,47.60
2023-04-29T14:30:30.997Z,45.79
2023-04-29T14:33:16.111Z,44.68
2023-04-29T14:36:01.066Z,44.13
2023-04-29T14:38:46.444Z,43.65
2023-04-29T14:41:31.682Z,43.56
2023-04-29T14:44:17.074Z,44.55
2023-04-29T14:47:02.242Z,43.33
2023-04-29T14:49:47.300Z,42.71
2023-04-29T14:52:32.236Z,43.17
2023-04-29T14:55:17.233Z,42.27
2023-04-29T14:58:04.886Z,41.99
2023-04-29T15:00:51.033Z,42.49
2023-04-29T15:03:43.531Z,43.99
2023-04-29T15:06:29.821Z,45.45
2023-04-29T15:09:15.070Z,45.28
2023-04-29T15:11:59.977Z,45.18
2023-04-29T15:14:45.326Z,44.64
2023-04-29T15:17:30.691Z,44.69
2023-04-29T15:20:16.333Z,43.91
2023-04-29T15:23:01.485Z,44.12
2023-04-29T15:25:46.769Z,43.61
2023-04-29T15:28:31.997Z,44.40
2023-04-29T15:31:17.055Z,44.26
2023-04-29T15:34:02.369Z,43.62
2023-04-29T15:36:47.415Z,43.48
2023-04-29T15:39:32.770Z,43.17
2023-04-29T15:42:18.181Z,44.13
2023-04-29T15:45:03.094Z,44.63
2023-04-29T15:47:48.557Z,44.03
2023-04-29T15:50:33.706Z,43.99
2023-04-29T15:53:19.072Z,44.28
2023-04-29T15:56:04.675Z,44.97
2023-04-29T15:58:49.710Z,44.96
2023-04-29T16:01:36.455Z,45.78
2023-04-29T16:04:21.709Z,46.89
2023-04-29T16:07:07.146Z,47.25
2023-04-29T16:09:52.630Z,47.13
2023-04-29T16:12:37.925Z,46.90
2023-04-29T16:15:23.226Z,47.20
2023-04-29T16:18:08.178Z,48.19
2023-04-29T16:20:53.318Z,48.47
2023-04-29T16:23:38.404Z,48.95
2023-04-29T16:26:23.710Z,49.70
2023-04-29T16:29:10.127Z,51.02
2023-04-29T16:31:55.754Z,51.71
2023-04-29T16:34:41.777Z,51.34
2023-04-29T16:37:27.109Z,52.39
2023-04-29T16:40:12.789Z,52.28
2023-04-29T16:42:57.868Z,52.79
2023-04-29T16:45:43.278Z,53.04
2023-04-29T16:48:29.586Z,53.04
2023-04-29T16:51:14.571Z,53.06
2023-04-29T16:53:59.647Z,53.84
2023-04-29T16:56:44.942Z,54.45
2023-04-29T16:59:30.310Z,54.75
2023-04-29T17:02:15.606Z,55.08
2023-04-29T17:05:01.065Z,55.36
2023-04-29T17:07:46.082Z,55.86
2023-04-29T17:10:31.259Z,57.17
2023-04-29T17:13:16.665Z,58.79
2023-04-29T17:16:02.171Z,59.20
2023-04-29T17:18:47.320Z,59.18
2023-04-29T17:21:32.405Z,60.25
2023-04-29T17:24:18.166Z,60.58
2023-04-29T17:27:03.441Z,60.79
2023-04-29T17:29:48.717Z,61.07
2023-04-29T17:32:38.974Z,61.37
2023-04-29T17:35:24.170Z,62.01
2023-04-29T17:38:09.370Z,61.85
2023-04-29T17:40:54.914Z,62.36
2023-04-29T17:43:40.924Z,62.34
2023-04-29T17:46:25.880Z,62.43
2023-04-29T17:49:11.389Z,63.16
2023-04-29T17:51:57.040Z,63.62
2023-04-29T17:54:42.341Z,63.96
2023-04-29T17:57:31.098Z,64.14
2023-04-29T18:00:16.744Z,64.52
2023-04-29T18:03:02.960Z,64.98
2023-04-29T18:05:48.527Z,65.84
2023-04-29T18:08:33.795Z,66.36
2023-04-29T18:11:18.690Z,66.79
2023-04-29T18:14:04.724Z,67.15
2023-04-29T18:16:49.701Z,67.55
2023-04-29T18:19:34.814Z,67.74
2023-04-29T18:22:19.766Z,68.06
2023-04-29T18:25:05.036Z,68.10
2023-04-29T18:27:49.996Z,68.51
2023-04-29T18:30:35.837Z,68.71
2023-04-29T18:33:21.388Z,68.86
2023-04-29T18:36:06.744Z,69.26
2023-04-29T18:38:51.807Z,70.03
2023-04-29T18:41:37.235Z,70.74
2023-04-29T18:44:22.705Z,70.97
2023-04-29T18:47:07.935Z,71.19
2023-04-29T18:49:53.250Z,71.46
2023-04-29T18:52:38.725Z,72.12
2023-04-29T18:55:24.690Z,72.21
2023-04-29T18:58:10.382Z,72.79
2023-04-29T19:00:57.663Z,73.17
2023-04-29T19:03:42.829Z,73.32
2023-04-29T19:06:28.634Z,73.85
2023-04-29T19:09:13.736Z,74.30
2023-04-29T19:12:09.622Z,74.77
2023-04-29T19:14:54.887Z,74.80
2023-04-29T19:17:39.895Z,75.32
2023-04-29T19:20:25.768Z,75.63
2023-04-29T19:23:10.785Z,75.65
2023-04-29T19:25:55.743Z,75.85
2023-04-29T19:28:40.876Z,76.00
2023-04-29T19:31:26.724Z,76.24
2023-04-29T19:34:11.664Z,76.73
2023-04-29T19:36:56.868Z,77.38
2023-04-29T19:39:41.892Z,77.97
2023-04-29T19:42:27.258Z,78.27
2023-04-29T19:45:12.680Z,78.44
2023-04-29T19:48:01.853Z,78.64
2023-04-29T19:50:46.880Z,78.85
2023-04-29T19:53:32.012Z,79.14
2023-04-29T19:56:19.275Z,79.19
2023-04-29T19:59:04.661Z,79.10
2023-04-29T20:01:51.407Z,79.61
2023-04-29T20:04:36.962Z,79.69
2023-04-29T20:07:22.199Z,80.03
2023-04-29T20:10:07.759Z,79.72
2023-04-29T20:12:53.066Z,79.34
2023-04-29T20:15:37.897Z,79.03
2023-04-29T20:18:22.835Z,79.07
2023-04-29T20:21:07.924Z,79.29
2023-04-29T20:23:53.365Z,79.36
2023-04-29T20:26:38.406Z,79.47
2023-04-29T20:29:23.495Z,79.68
2023-04-29T20:32:08.885Z,79.91
2023-04-29T20:34:54.461Z,80.63
2023-04-29T20:37:39.727Z,81.00
2023-04-29T20:40:24.650Z,81.38
2023-04-29T20:43:09.874Z,81.57
2023-04-29T20:45:55.409Z,82.08
2023-04-29T20:48:40.636Z,82.37
2023-04-29T20:51:26.758Z,82.30
2023-04-29T20:54:12.282Z,82.43
2023-04-29T20:56:57.423Z,83.56
2023-04-29T20:59:42.765Z,84.18
2023-04-29T21:02:27.958Z,84.93
2023-04-29T21:05:13.421Z,85.75
2023-04-29T21:07:58.703Z,86.19
2023-04-29T21:10:43.962Z,86.93
2023-04-29T21:13:29.294Z,87.24
2023-04-29T21:16:14.402Z,87.76
2023-04-29T21:18:59.446Z,88.18
2023-04-29T21:21:44.535Z,88.60
2023-04-29T21:24:31.507Z,89.12
2023-04-29T21:27:17.162Z,89.04
2023-04-29T21:30:04.798Z,89.71
2023-04-29T21:32:50.008Z,90.20
2023-04-29T21:35:34.923Z,90.38
2023-04-29T21:38:20.382Z,91.11
2023-04-29T21:41:06.200Z,91.20
2023-04-29T21:43:51.622Z,91.65
2023-04-29T21:46:37.336Z,92.20
2023-04-29T21:49:22.477Z,92.46
2023-04-29T21:52:08.004Z,92.96
2023-04-29T21:54:53.194Z,93.17
2023-04-29T21:57:44.062Z,93.59
2023-04-29T22:00:33.402Z,93.57
2023-04-29T22:03:18.680Z,94.31
2023-04-29T22:06:03.880Z,94.51
2023-04-29T22:08:49.507Z,94.47
2023-04-29T22:11:34.674Z,95.39
2023-04-29T22:14:19.897Z,94.75
2023-04-29T22:17:04.901Z,95.47
2023-04-29T22:19:49.854Z,95.89
2023-04-29T22:22:34.929Z,96.20
2023-04-29T22:25:21.565Z,96.06
2023-04-29T22:28:06.788Z,96.56
2023-04-29T22:30:52.159Z,96.74
2023-04-29T22:33:37.329Z,96.88
2023-04-29T22:36:22.502Z,96.99
2023-04-29T22:39:07.338Z,97.25
2023-04-29T22:41:52.362Z,97.49
2023-04-29T22:44:37.492Z,98.09
2023-04-29T22:47:22.618Z,99.31
2023-04-29T22:50:07.857Z,99.54
2023-04-29T22:52:52.925Z,100.00
2023-04-29T22:55:38.048Z,100.00
2023-04-29T22:58:27.047Z,100.00
2023-04-29T23:01:12.315Z,100.00
2023-04-29T23:03:57.870Z,100.00
2023-04-29T23:06:43.137Z,100.00
2023-04-29T23:09:29.049Z,100.00
2023-04-29T23:12:14.068Z,100.00
2023-04-29T23:14:59.281Z,100.00
2023-04-29T23:17:44.364Z,100.00
2023-04-29T23:20:29.401Z,100.00
2023-04-29T23:23:14.647Z,100.00
2023-04-29T23:25:59.902Z,100.00
2023-04-29T23:28:45.770Z,100.00
2023-04-29T23:31:30.990Z,100.00
2023-04-29T23:34:17.876Z,100.00
2023-04-29T23:37:03.267Z,100.00
2023-04-29T23:39:48.324Z,100.00
2023-04-29T23:42:33.878Z,100.00
2023-04-29T23:45:18.878Z,100.00
2023-04-29T23:48:04.297Z,100.00
2023-04-29T23:50:49.135Z,100.00
2023-04-29T23:53:34.066Z,100.00
2023-04-29T23:56:19.251Z,100.00
2023-04-29T23:59:04.417Z,100.00
